Time;durP1;ratioP1;P1;durP2;ratioP2;P2;SDS_P1;SDS_P2;PMS_P1;PMS_P2;Temp;Humidity;BMP_temperature;BMP_pressure;BME280_temperature;BME280_humidity;BME280_pressure;Samples;Min_cycle;Max_cycle;Signal;HPM_P1;HPM_P2
2023/10/09 00:01:14;;;;;;;12.18;7.18;;;11.80;99.90;;;;;;5017677;28;20200;-83
2023/10/09 00:03:53;;;;;;;12.07;7.68;;;11.70;99.90;;;;;;5017789;28;20170;-83
2023/10/09 00:06:38;;;;;;;11.82;6.88;;;11.80;99.90;;;;;;5017879;28;20175;-84
2023/10/09 00:09:19;;;;;;;12.23;8.05;;;11.70;99.90;;;;;;5019256;28;20187;-84
2023/10/09 00:11:44;;;;;;;13.23;7.47;;;11.70;99.90;;;;;;5017328;28;20226;-83
2023/10/09 00:14:15;;;;;;;12.20;7.25;;;11.60;99.90;;;;;;5017843;28;20184;-83
2023/10/09 00:16:56;;;;;;;11.38;7.07;;;11.60;99.90;;;;;;5018099;28;20573;-83
2023/10/09 00:19:32;;;;;;;10.30;6.32;;;11.60;99.90;;;;;;5020241;28;20174;-83
2023/10/09 00:22:04;;;;;;;13.30;7.78;;;11.50;99.90;;;;;;5018459;28;20207;-84
2023/10/09 00:24:34;;;;;;;11.95;7.13;;;11.50;99.90;;;;;;5017989;28;20175;-83
2023/10/09 00:27:12;;;;;;;12.02;7.70;;;11.50;99.90;;;;;;5017901;28;20291;-84
2023/10/09 00:29:44;;;;;;;11.82;8.00;;;11.50;99.90;;;;;;5017925;28;20626;-84
2023/10/09 00:32:15;;;;;;;11.63;7.68;;;11.50;99.90;;;;;;5017351;28;20298;-84
2023/10/09 00:34:41;;;;;;;13.93;8.18;;;11.60;99.90;;;;;;5017277;28;20208;-83
2023/10/09 00:37:16;;;;;;;13.73;7.53;;;11.60;99.90;;;;;;5018937;28;20187;-83
2023/10/09 00:39:48;;;;;;;13.13;8.10;;;11.60;99.90;;;;;;5017796;28;20599;-83
2023/10/09 00:42:22;;;;;;;15.23;8.68;;;11.60;99.90;;;;;;5017783;28;20222;-83
2023/10/09 00:44:48;;;;;;;17.30;9.38;;;11.60;99.90;;;;;;5018622;28;20229;-84
2023/10/09 00:47:34;;;;;;;15.43;8.73;;;11.60;99.90;;;;;;5017554;28;20243;-83
2023/10/09 00:50:11;;;;;;;14.55;8.55;;;11.60;99.90;;;;;;5017359;28;20179;-84
2023/10/09 00:52:49;;;;;;;13.65;8.68;;;11.60;99.90;;;;;;5019269;28;20187;-83
2023/10/09 00:55:21;;;;;;;17.88;8.27;;;11.60;99.90;;;;;;5017726;28;20183;-83
2023/10/09 00:57:58;;;;;;;12.90;8.32;;;11.60;99.90;;;;;;5019142;28;20183;-83
2023/10/09 01:03:20;;;;;;;14.32;9.07;;;11.60;99.90;;;;;;5018161;28;20199;-84
2023/10/09 01:06:22;;;;;;;15.75;10.02;;;11.70;99.90;;;;;;5017706;28;20180;-83
2023/10/09 01:09:08;;;;;;;28.17;14.77;;;11.80;99.90;;;;;;5017581;28;20185;-84
2023/10/09 01:11:34;;;;;;;21.38;11.05;;;12.00;99.90;;;;;;5015809;28;20206;-84
2023/10/09 01:16:35;;;;;;;21.75;12.65;;;12.10;99.90;;;;;;5017118;28;20174;-83
2023/10/09 01:19:06;;;;;;;22.60;13.15;;;12.10;99.90;;;;;;5018021;28;20179;-83
2023/10/09 01:21:31;;;;;;;31.10;16.42;;;12.20;99.90;;;;;;5018038;28;20227;-83
2023/10/09 01:24:03;;;;;;;31.33;17.73;;;12.30;99.90;;;;;;5018532;28;20175;-83
2023/10/09 01:26:39;;;;;;;30.35;17.45;;;12.50;99.90;;;;;;5018367;28;20171;-83
2023/10/09 01:29:19;;;;;;;38.22;20.02;;;12.70;99.90;;;;;;5018913;28;20199;-83
2023/10/09 01:34:38;;;;;;;29.05;17.80;;;13.20;99.90;;;;;;5020896;28;20657;-84
2023/10/09 01:37:29;;;;;;;39.13;20.65;;;13.30;99.90;;;;;;5019306;28;20179;-84
2023/10/09 01:40:16;;;;;;;42.85;22.02;;;13.50;99.90;;;;;;5022627;28;20180;-84
2023/10/09 01:42:45;;;;;;;36.90;19.70;;;13.70;99.90;;;;;;5021621;28;20203;-84
2023/10/09 01:45:12;;;;;;;33.92;19.90;;;13.80;99.90;;;;;;5019609;28;20591;-83
2023/10/09 01:47:38;;;;;;;33.35;19.52;;;13.80;99.90;;;;;;5019866;28;20176;-83
2023/10/09 01:50:06;;;;;;;33.10;18.27;;;13.80;99.90;;;;;;5019511;28;20187;-84
2023/10/09 01:52:37;;;;;;;32.00;18.15;;;13.80;99.90;;;;;;5019551;28;20204;-84
2023/10/09 01:55:15;;;;;;;28.42;16.65;;;13.80;99.90;;;;;;5019537;28;20195;-84
2023/10/09 01:57:44;;;;;;;35.20;20.05;;;13.80;99.90;;;;;;5021786;28;20265;-84
2023/10/09 02:00:23;;;;;;;30.63;18.73;;;13.70;99.90;;;;;;5016772;28;20608;-84
2023/10/09 02:02:50;;;;;;;37.47;19.23;;;13.80;99.90;;;;;;5015667;28;20303;-83
2023/10/09 02:07:51;;;;;;;31.60;19.85;;;13.80;99.90;;;;;;5017194;28;20179;-83
2023/10/09 02:10:39;;;;;;;30.45;18.02;;;13.70;99.90;;;;;;5015462;28;20215;-83
2023/10/09 02:13:10;;;;;;;28.17;18.80;;;13.80;99.90;;;;;;5015645;28;20195;-83
2023/10/09 02:15:51;;;;;;;35.28;18.00;;;13.80;99.90;;;;;;5015777;28;20176;-83
2023/10/09 02:23:46;;;;;;;39.50;20.17;;;13.80;99.90;;;;;;5018007;28;20160;-83
2023/10/09 02:26:25;;;;;;;32.05;18.42;;;13.90;99.90;;;;;;5015549;28;20168;-83
2023/10/09 02:28:58;;;;;;;30.38;17.52;;;14.00;99.90;;;;;;5015936;28;20235;-83
2023/10/09 02:31:44;;;;;;;26.30;18.27;;;14.00;99.90;;;;;;5016346;28;20191;-83
2023/10/09 02:34:10;;;;;;;29.75;17.73;;;14.00;99.90;;;;;;5019071;28;20183;-83
2023/10/09 02:36:42;;;;;;;29.98;16.08;;;14.10;99.90;;;;;;5020907;28;20184;-83
2023/10/09 02:39:36;;;;;;;27.23;15.80;;;14.10;99.90;;;;;;5019654;28;20190;-83
2023/10/09 02:44:50;;;;;;;28.40;16.13;;;14.30;99.90;;;;;;5019946;28;20183;-83
2023/10/09 02:47:25;;;;;;;23.88;15.48;;;14.30;99.90;;;;;;5018264;28;20183;-83
2023/10/09 02:49:51;;;;;;;29.80;17.17;;;14.30;99.90;;;;;;5018018;28;20171;-83
2023/10/09 02:52:25;;;;;;;27.05;14.23;;;14.30;99.90;;;;;;5018345;28;20549;-83
2023/10/09 02:54:59;;;;;;;26.17;14.50;;;14.40;99.90;;;;;;5016916;28;20176;-83
2023/10/09 02:57:35;;;;;;;22.35;14.65;;;14.50;99.90;;;;;;5018167;28;20693;-83
2023/10/09 03:00:02;;;;;;;25.70;15.27;;;14.50;99.90;;;;;;5017693;28;20167;-83
2023/10/09 03:02:31;;;;;;;21.08;14.07;;;14.40;99.90;;;;;;5018157;28;20238;-83
2023/10/09 03:04:59;;;;;;;23.13;14.63;;;14.60;99.90;;;;;;5016377;28;20184;-83
2023/10/09 03:07:25;;;;;;;22.05;14.02;;;14.60;99.90;;;;;;5016802;28;20703;-83
2023/10/09 03:09:50;;;;;;;18.58;12.77;;;14.60;99.90;;;;;;5016899;28;20226;-83
2023/10/09 03:12:18;;;;;;;20.80;13.20;;;14.60;99.90;;;;;;5015241;28;20206;-84
2023/10/09 03:14:44;;;;;;;24.35;13.48;;;14.70;99.90;;;;;;5015076;28;20183;-84
2023/10/09 03:17:11;;;;;;;23.38;12.13;;;14.70;99.90;;;;;;5014782;28;20255;-83
2023/10/09 03:19:37;;;;;;;27.70;13.90;;;14.80;99.90;;;;;;5015855;28;20171;-83
2023/10/09 03:22:11;;;;;;;21.73;12.93;;;14.80;99.90;;;;;;5018588;28;20212;-83
2023/10/09 03:24:38;;;;;;;23.10;12.80;;;14.70;99.90;;;;;;5015517;28;20173;-83
2023/10/09 03:27:05;;;;;;;25.55;12.15;;;14.70;99.90;;;;;;5014015;28;20611;-83
2023/10/09 03:29:30;;;;;;;26.15;12.55;;;14.70;99.90;;;;;;5013957;28;20211;-83
2023/10/09 03:31:56;;;;;;;20.23;13.50;;;14.70;99.90;;;;;;5014443;28;20211;-83
2023/10/09 03:34:23;;;;;;;20.98;12.57;;;14.70;99.90;;;;;;5013901;28;20186;-83
2023/10/09 03:36:59;;;;;;;26.42;13.70;;;14.70;99.90;;;;;;5014277;28;20182;-83
2023/10/09 03:39:47;;;;;;;21.58;13.85;;;14.70;99.90;;;;;;5014620;28;20167;-84
2023/10/09 03:42:19;;;;;;;20.35;12.45;;;14.70;99.90;;;;;;5014179;28;20215;-83
2023/10/09 03:44:53;;;;;;;22.42;14.30;;;14.70;99.90;;;;;;5013814;28;20164;-83
2023/10/09 03:47:22;;;;;;;22.70;14.02;;;14.70;99.90;;;;;;5013921;28;20172;-83
2023/10/09 03:49:52;;;;;;;25.67;14.52;;;14.70;99.90;;;;;;5013485;28;20182;-83
2023/10/09 03:52:19;;;;;;;21.35;14.70;;;14.70;99.90;;;;;;5013575;28;20674;-83
2023/10/09 03:54:46;;;;;;;20.80;13.48;;;14.70;99.90;;;;;;5013776;28;20238;-83
2023/10/09 03:57:21;;;;;;;27.75;14.73;;;14.70;99.90;;;;;;5013689;28;20187;-84
2023/10/09 03:59:47;;;;;;;24.73;13.77;;;14.70;99.90;;;;;;5013552;28;20262;-84
2023/10/09 04:02:16;;;;;;;27.42;13.02;;;14.60;99.90;;;;;;5013190;28;20323;-84
2023/10/09 04:04:46;;;;;;;25.63;14.07;;;14.60;99.90;;;;;;5014941;28;20255;-84
2023/10/09 04:07:16;;;;;;;21.23;12.68;;;14.70;99.90;;;;;;5015081;28;20162;-83
2023/10/09 04:09:44;;;;;;;20.05;13.07;;;14.80;99.90;;;;;;5014082;28;20681;-83
2023/10/09 04:14:43;;;;;;;25.75;13.32;;;14.90;99.90;;;;;;5015823;28;20538;-83
2023/10/09 04:17:43;;;;;;;21.50;13.10;;;14.90;99.90;;;;;;5014153;28;20182;-83
2023/10/09 04:23:05;;;;;;;24.20;13.10;;;14.90;99.90;;;;;;5007053;28;20250;-83
2023/10/09 04:25:45;;;;;;;20.90;13.00;;;14.90;99.90;;;;;;5016511;28;20223;-83
2023/10/09 04:28:22;;;;;;;19.88;12.73;;;14.90;99.90;;;;;;5015553;28;20191;-83
2023/10/09 04:30:53;;;;;;;24.85;11.95;;;15.00;99.90;;;;;;5015022;28;20597;-82
2023/10/09 04:33:40;;;;;;;20.10;13.25;;;15.00;99.90;;;;;;5014668;28;20587;-82
2023/10/09 04:36:21;;;;;;;21.05;13.20;;;14.90;99.90;;;;;;5014428;28;20172;-82
2023/10/09 04:41:33;;;;;;;22.83;12.45;;;14.90;99.90;;;;;;5015842;28;20211;-83
2023/10/09 04:50:01;;;;;;;21.95;12.35;;;15.10;99.90;;;;;;5016580;28;20243;-82
2023/10/09 04:57:37;;;;;;;19.90;12.13;;;15.10;99.90;;;;;;5019751;28;20175;-83
2023/10/09 05:00:06;;;;;;;20.05;11.93;;;15.10;99.90;;;;;;5017696;28;20267;-83
2023/10/09 05:02:36;;;;;;;15.48;10.73;;;15.10;99.90;;;;;;5017187;28;20592;-83
2023/10/09 05:05:16;;;;;;;21.80;11.10;;;15.10;99.90;;;;;;5018538;28;20522;-83
2023/10/09 05:07:56;;;;;;;17.80;10.98;;;15.10;99.90;;;;;;5017307;28;20168;-83
2023/10/09 05:10:25;;;;;;;21.13;12.40;;;15.00;99.90;;;;;;5016943;28;20249;-83
2023/10/09 05:12:57;;;;;;;20.25;12.07;;;15.00;99.90;;;;;;5017149;28;20196;-84
2023/10/09 05:15:29;;;;;;;20.02;11.38;;;15.00;99.90;;;;;;5018632;28;20251;-84
2023/10/09 05:18:02;;;;;;;18.63;11.85;;;15.00;99.90;;;;;;5018526;28;20248;-84
2023/10/09 05:23:16;;;;;;;22.90;11.55;;;15.10;99.90;;;;;;5018072;28;20207;-83
2023/10/09 05:25:53;;;;;;;20.30;11.73;;;15.10;99.90;;;;;;5016234;28;20176;-83
2023/10/09 05:28:25;;;;;;;19.38;12.05;;;15.10;99.90;;;;;;5015993;28;20674;-83
2023/10/09 05:31:44;;;;;;;21.33;12.45;;;15.20;99.90;;;;;;5016114;28;20179;-83
2023/10/09 05:33:45;;;;;;;19.58;12.07;;;15.20;99.90;;;;;;5016951;28;20183;-83
2023/10/09 05:41:59;;;;;;;19.10;11.57;;;15.30;99.90;;;;;;5021434;28;20736;-84
2023/10/09 05:49:54;;;;;;;22.80;12.13;;;15.30;99.90;;;;;;5019040;28;20168;-83
2023/10/09 05:52:42;;;;;;;23.23;13.02;;;15.30;99.90;;;;;;5017499;28;20195;-83
2023/10/09 06:14:12;;;;;;;18.77;12.02;;;15.20;99.90;;;;;;5017724;28;20187;-83
2023/10/09 06:16:42;;;;;;;23.40;12.48;;;15.20;99.90;;;;;;5015808;28;20239;-84
2023/10/09 06:19:25;;;;;;;17.38;12.25;;;15.30;99.90;;;;;;5016100;28;20168;-84
2023/10/09 06:24:42;;;;;;;23.65;11.48;;;15.40;99.90;;;;;;5017201;28;20183;-84
2023/10/09 06:27:12;;;;;;;19.52;12.45;;;15.40;99.90;;;;;;5015666;28;20172;-84
2023/10/09 06:35:16;;;;;;;17.98;11.70;;;15.50;99.90;;;;;;5016252;28;20175;-83
2023/10/09 06:58:57;;;;;;;17.85;11.13;;;15.50;99.90;;;;;;5019051;28;20176;-83
2023/10/09 07:03:54;;;;;;;19.40;11.68;;;15.60;99.90;;;;;;5019068;28;20641;-83
2023/10/09 07:06:24;;;;;;;21.98;12.10;;;15.70;99.90;;;;;;5016627;28;20234;-83
2023/10/09 07:09:42;;;;;;;19.35;11.55;;;15.70;99.90;;;;;;5015294;28;20251;-83
2023/10/09 07:17:26;;;;;;;22.27;11.43;;;15.80;99.90;;;;;;5016507;28;20650;-83
2023/10/09 07:24:58;;;;;;;24.98;11.85;;;15.90;99.90;;;;;;5016018;28;20180;-83
2023/10/09 07:27:44;;;;;;;18.90;10.63;;;15.90;99.90;;;;;;5013797;28;20176;-83
2023/10/09 07:35:46;;;;;;;16.98;11.18;;;16.10;99.90;;;;;;5015320;28;20171;-83
2023/10/09 07:38:35;;;;;;;17.15;11.45;;;16.10;99.90;;;;;;5014377;28;20188;-83
2023/10/09 07:46:32;;;;;;;19.42;11.05;;;16.30;99.90;;;;;;5015388;28;20572;-83
2023/10/09 07:49:08;;;;;;;16.10;11.02;;;16.40;99.90;;;;;;5014361;28;20164;-83
2023/10/09 07:51:36;;;;;;;19.27;10.95;;;16.40;99.90;;;;;;5015090;28;20210;-84
2023/10/09 07:54:08;;;;;;;17.08;10.65;;;16.30;99.90;;;;;;5016389;28;20193;-83
2023/10/09 07:56:39;;;;;;;18.98;11.10;;;16.30;99.90;;;;;;5028312;28;20618;-83
2023/10/09 07:59:10;;;;;;;17.40;11.25;;;16.30;99.90;;;;;;5027553;28;20182;-83
2023/10/09 08:02:02;;;;;;;18.77;11.35;;;16.30;99.90;;;;;;5019612;28;20319;-83
2023/10/09 08:04:47;;;;;;;18.42;10.55;;;16.30;99.90;;;;;;5015685;28;20168;-84
2023/10/09 08:07:25;;;;;;;17.15;11.77;;;16.20;99.90;;;;;;5016988;28;20191;-83
2023/10/09 08:16:17;;;;;;;22.85;11.85;;;16.30;99.90;;;;;;5017618;28;20525;-83
2023/10/09 08:18:27;;;;;;;17.77;11.65;;;16.30;99.90;;;;;;5014639;28;20249;-83
2023/10/09 08:23:48;;;;;;;21.13;12.43;;;16.50;99.90;;;;;;5018629;28;20576;-83
2023/10/09 08:26:47;;;;;;;20.13;11.70;;;16.60;99.90;;;;;;5021418;28;20246;-83
2023/10/09 08:29:17;;;;;;;20.55;11.90;;;16.70;99.90;;;;;;5021046;28;20234;-83
2023/10/09 08:31:46;;;;;;;18.58;11.15;;;16.70;99.90;;;;;;5019802;28;20199;-83
2023/10/09 08:34:24;;;;;;;18.13;11.63;;;16.80;99.90;;;;;;5020129;28;20234;-83
2023/10/09 08:36:52;;;;;;;20.08;11.48;;;16.80;99.90;;;;;;5019934;28;20179;-83
2023/10/09 08:39:33;;;;;;;20.75;11.50;;;16.80;99.90;;;;;;5019703;28;20190;-83
2023/10/09 08:42:01;;;;;;;22.73;11.38;;;16.80;99.90;;;;;;5018872;28;20215;-84
2023/10/09 08:44:29;;;;;;;18.35;12.38;;;16.90;99.90;;;;;;5018592;28;20313;-84
2023/10/09 08:46:57;;;;;;;19.75;11.75;;;16.80;99.90;;;;;;5019973;28;20180;-84
2023/10/09 08:49:23;;;;;;;20.67;11.43;;;16.80;99.90;;;;;;5019716;28;20176;-84
2023/10/09 08:51:52;;;;;;;20.40;11.57;;;16.80;99.90;;;;;;5018977;28;20211;-84
2023/10/09 08:54:18;;;;;;;22.52;11.88;;;16.80;99.90;;;;;;5018668;28;20656;-83
2023/10/09 08:56:54;;;;;;;18.65;12.30;;;16.80;99.90;;;;;;5023041;28;20563;-83
2023/10/09 08:59:26;;;;;;;20.35;11.80;;;16.80;99.90;;;;;;5025159;28;20203;-83
2023/10/09 09:01:59;;;;;;;18.42;11.77;;;16.70;99.90;;;;;;5023453;28;20215;-83
2023/10/09 09:04:40;;;;;;;18.73;12.18;;;16.70;99.90;;;;;;5024187;28;20182;-83
2023/10/09 09:07:41;;;;;;;23.38;11.98;;;16.70;99.90;;;;;;5019691;28;20230;-83
2023/10/09 09:10:31;;;;;;;23.30;13.30;;;16.70;99.90;;;;;;5002123;28;20215;-83
2023/10/09 09:13:03;;;;;;;21.88;11.73;;;16.70;99.90;;;;;;5019861;28;20253;-83
2023/10/09 09:15:30;;;;;;;17.20;11.38;;;16.70;99.90;;;;;;5002854;28;20210;-83
2023/10/09 09:18:11;;;;;;;20.42;12.38;;;16.70;99.90;;;;;;5019216;28;20176;-83
2023/10/09 09:20:51;;;;;;;19.52;11.02;;;16.70;99.90;;;;;;5004194;28;20179;-83
2023/10/09 09:23:23;;;;;;;21.55;12.98;;;16.80;99.90;;;;;;5019998;28;20200;-83
2023/10/09 09:26:10;;;;;;;18.25;11.43;;;16.90;99.90;;;;;;5021215;28;20180;-83
2023/10/09 09:29:24;;;;;;;21.33;11.48;;;17.00;99.90;;;;;;4990105;28;20180;-87
2023/10/09 09:32:19;;;;;;;18.02;10.23;;;17.10;99.90;;;;;;5017752;28;20196;-86
2023/10/09 09:35:04;;;;;;;14.00;9.98;;;17.20;99.90;;;;;;5000849;28;20214;-86
2023/10/09 09:37:51;;;;;;;20.33;11.50;;;17.30;99.90;;;;;;5016203;28;20208;-84
2023/10/09 09:41:07;;;;;;;20.48;11.52;;;17.40;99.90;;;;;;5017386;28;20191;-86
2023/10/09 09:44:18;;;;;;;19.95;11.40;;;17.40;99.90;;;;;;5011289;28;20685;-85
2023/10/09 09:50:28;;;;;;;18.23;10.23;;;17.70;99.90;;;;;;4995884;28;20191;-85
2023/10/09 09:52:55;;;;;;;15.88;9.73;;;18.00;99.90;;;;;;5016201;28;20203;-85
2023/10/09 09:56:06;;;;;;;14.35;9.20;;;18.10;99.90;;;;;;5015694;28;20271;-85
2023/10/09 09:58:42;;;;;;;16.75;9.02;;;18.30;99.90;;;;;;5016260;28;20175;-85
2023/10/09 10:01:31;;;;;;;17.45;8.95;;;18.50;99.90;;;;;;5015970;28;20229;-85
2023/10/09 10:04:53;;;;;;;13.88;9.00;;;18.50;99.90;;;;;;5015794;28;20160;-86
2023/10/09 10:07:22;;;;;;;15.15;8.90;;;18.60;99.90;;;;;;5011394;28;20188;-85
2023/10/09 10:09:54;;;;;;;13.65;8.40;;;18.60;99.90;;;;;;5015654;28;20226;-85
2023/10/09 10:13:01;;;;;;;15.13;9.18;;;18.60;99.90;;;;;;5015585;28;20199;-85
2023/10/09 10:16:00;;;;;;;17.58;9.02;;;18.70;99.90;;;;;;5015039;28;20191;-85
2023/10/09 10:18:32;;;;;;;14.02;8.45;;;18.70;99.90;;;;;;5014616;28;20270;-85
2023/10/09 10:21:33;;;;;;;15.45;9.70;;;18.80;99.90;;;;;;5014911;28;20178;-85
2023/10/09 10:24:23;;;;;;;16.15;8.63;;;18.80;99.90;;;;;;5015150;28;20534;-84
2023/10/09 10:27:24;;;;;;;15.68;8.98;;;18.90;99.90;;;;;;5015712;28;20306;-86
2023/10/09 10:30:31;;;;;;;14.82;8.60;;;19.00;99.90;;;;;;5014787;28;20642;-83
2023/10/09 10:33:15;;;;;;;13.27;8.15;;;19.00;99.90;;;;;;4995735;28;20704;-84
2023/10/09 10:39:09;;;;;;;16.90;9.55;;;19.00;99.90;;;;;;5015960;28;20218;-85
2023/10/09 10:41:25;;;;;;;12.43;8.50;;;19.00;99.90;;;;;;5015330;28;20266;-85
2023/10/09 10:51:39;;;;;;;18.63;9.55;;;19.10;99.90;;;;;;5016018;28;20199;-84
2023/10/09 10:56:57;;;;;;;17.52;10.15;;;19.10;99.90;;;;;;5017562;28;20202;-83
2023/10/09 10:59:26;;;;;;;15.05;10.10;;;19.20;99.90;;;;;;5016527;28;20218;-83
2023/10/09 11:01:53;;;;;;;19.77;10.93;;;19.10;99.90;;;;;;5016179;28;20258;-84
2023/10/09 11:12:44;;;;;;;15.52;9.70;;;19.10;99.90;;;;;;5015970;28;20242;-84
2023/10/09 11:18:07;;;;;;;15.70;8.57;;;19.00;99.90;;;;;;5016154;28;20167;-85
2023/10/09 11:20:38;;;;;;;15.05;8.80;;;19.10;99.90;;;;;;5015335;28;20172;-84
2023/10/09 11:25:33;;;;;;;24.13;9.95;;;19.00;99.90;;;;;;5017058;28;20168;-84
2023/10/09 11:28:15;;;;;;;15.20;8.50;;;19.10;99.90;;;;;;5014671;28;20179;-84
2023/10/09 11:30:45;;;;;;;17.05;8.93;;;19.10;99.90;;;;;;5013466;28;20172;-85
2023/10/09 11:33:15;;;;;;;21.60;9.68;;;19.10;99.90;;;;;;5014335;28;20214;-85
2023/10/09 11:35:43;;;;;;;13.35;9.57;;;19.10;99.90;;;;;;5014278;28;20267;-84
2023/10/09 11:38:21;;;;;;;20.70;9.80;;;19.20;99.90;;;;;;5014193;28;20211;-84
2023/10/09 11:41:06;;;;;;;16.38;8.75;;;19.20;99.90;;;;;;5014489;28;20168;-84
2023/10/09 11:43:52;;;;;;;17.42;9.25;;;19.20;99.90;;;;;;5014248;28;20167;-85
2023/10/09 11:46:37;;;;;;;17.45;9.60;;;19.30;99.90;;;;;;5015401;28;20164;-84
2023/10/09 11:54:56;;;;;;;16.90;9.60;;;19.50;99.90;;;;;;5002964;28;20626;-84
2023/10/09 11:57:35;;;;;;;15.73;9.80;;;19.50;99.90;;;;;;4997733;28;20180;-84
2023/10/09 12:00:29;;;;;;;15.43;8.65;;;19.70;99.90;;;;;;4997178;28;20674;-85
2023/10/09 12:03:23;;;;;;;17.17;10.50;;;19.70;99.90;;;;;;5014435;28;20697;-84
2023/10/09 12:06:39;;;;;;;14.38;9.63;;;19.60;99.90;;;;;;5012987;28;20258;-84
2023/10/09 12:10:02;;;;;;;17.40;10.38;;;19.60;99.90;;;;;;5013940;28;20642;-84
2023/10/09 12:12:30;;;;;;;16.80;10.73;;;19.40;99.90;;;;;;5014541;28;20222;-84
2023/10/09 12:14:57;;;;;;;16.02;9.20;;;19.30;99.90;;;;;;5016664;28;20171;-84
2023/10/09 12:17:25;;;;;;;18.75;10.15;;;19.20;99.90;;;;;;5014651;28;20230;-84
2023/10/09 12:19:51;;;;;;;16.77;11.05;;;19.10;99.90;;;;;;5015978;28;20542;-84
2023/10/09 12:22:17;;;;;;;16.33;10.20;;;19.10;99.90;;;;;;5019202;28;20214;-83
2023/10/09 12:24:43;;;;;;;20.85;11.20;;;19.10;99.90;;;;;;5015413;28;20325;-84
2023/10/09 12:27:12;;;;;;;17.40;10.13;;;19.10;99.90;;;;;;5015183;28;20168;-84
2023/10/09 12:29:44;;;;;;;21.00;10.70;;;19.10;99.90;;;;;;5014479;28;20593;-84
2023/10/09 12:32:11;;;;;;;16.55;10.52;;;19.20;99.90;;;;;;5014103;28;20235;-84
2023/10/09 12:34:38;;;;;;;19.83;10.38;;;19.10;99.90;;;;;;5014065;28;20179;-84
2023/10/09 12:37:04;;;;;;;18.67;11.23;;;19.10;99.90;;;;;;5015186;28;20294;-84
2023/10/09 12:39:33;;;;;;;18.98;10.55;;;19.10;99.90;;;;;;5015111;28;20210;-83
2023/10/09 12:42:08;;;;;;;18.90;10.98;;;19.10;99.90;;;;;;5014464;28;20214;-83
2023/10/09 12:44:44;;;;;;;16.35;10.60;;;19.00;99.90;;;;;;5014854;28;20269;-83
2023/10/09 12:47:12;;;;;;;17.77;10.50;;;19.10;99.90;;;;;;5014400;28;20210;-83
2023/10/09 12:49:40;;;;;;;17.73;9.35;;;19.10;99.90;;;;;;5014482;28;20187;-83
2023/10/09 12:52:15;;;;;;;18.52;10.27;;;19.20;99.90;;;;;;5014700;28;20203;-83
2023/10/09 12:54:42;;;;;;;17.55;10.93;;;19.20;99.90;;;;;;5014407;28;20182;-83
2023/10/09 12:57:13;;;;;;;19.48;11.80;;;19.10;99.90;;;;;;5014443;28;20631;-83
2023/10/09 12:59:45;;;;;;;17.95;10.65;;;19.10;99.90;;;;;;5016051;28;20152;-82
2023/10/09 13:02:12;;;;;;;16.38;10.27;;;19.10;99.90;;;;;;5014608;28;20725;-83
2023/10/09 13:04:41;;;;;;;17.60;11.05;;;19.10;99.90;;;;;;5015412;28;20183;-82
2023/10/09 13:07:07;;;;;;;16.73;11.43;;;19.10;99.90;;;;;;5014325;28;20267;-82
2023/10/09 13:09:42;;;;;;;23.02;11.63;;;19.10;99.90;;;;;;5015671;28;20164;-82
2023/10/09 13:12:09;;;;;;;20.52;11.15;;;19.00;99.90;;;;;;5016197;28;20207;-82
2023/10/09 13:14:35;;;;;;;19.00;11.00;;;18.90;99.90;;;;;;5017975;28;20191;-82
2023/10/09 13:17:09;;;;;;;18.83;12.10;;;18.90;99.90;;;;;;5018785;28;20550;-82
2023/10/09 13:19:35;;;;;;;23.75;11.85;;;19.00;99.90;;;;;;5020103;28;20186;-82
2023/10/09 13:22:03;;;;;;;19.25;10.50;;;18.90;99.90;;;;;;5018177;28;20211;-82
2023/10/09 13:24:30;;;;;;;17.08;9.52;;;18.90;99.90;;;;;;5016876;28;20198;-82
2023/10/09 13:26:58;;;;;;;17.70;9.68;;;18.80;99.90;;;;;;5016479;28;20214;-82
2023/10/09 13:29:24;;;;;;;18.48;10.25;;;18.90;99.90;;;;;;5016390;28;20180;-82
2023/10/09 13:31:57;;;;;;;17.83;9.77;;;18.90;99.90;;;;;;5016321;28;20294;-82
2023/10/09 13:34:27;;;;;;;20.88;10.60;;;18.90;99.90;;;;;;5016589;28;20183;-82
2023/10/09 13:36:54;;;;;;;22.00;10.23;;;18.80;99.90;;;;;;5019138;28;20175;-82
2023/10/09 13:39:26;;;;;;;22.10;11.52;;;18.80;99.90;;;;;;5016800;28;20176;-82
2023/10/09 13:41:59;;;;;;;22.92;11.77;;;18.80;99.90;;;;;;5016192;28;20290;-82
2023/10/09 13:44:29;;;;;;;20.58;12.07;;;18.80;99.90;;;;;;5016216;28;20175;-82
2023/10/09 13:46:59;;;;;;;23.90;12.52;;;18.90;99.90;;;;;;5015960;28;20175;-82
2023/10/09 13:49:31;;;;;;;17.90;11.52;;;18.90;99.90;;;;;;5016074;28;20646;-83
2023/10/09 13:52:02;;;;;;;19.95;12.63;;;19.00;99.90;;;;;;5017379;28;20200;-82
2023/10/09 13:54:38;;;;;;;22.10;12.05;;;18.90;99.90;;;;;;5016146;28;20681;-82
2023/10/09 13:57:05;;;;;;;19.60;11.60;;;19.00;99.90;;;;;;5015879;28;20596;-82
2023/10/09 13:59:43;;;;;;;21.92;12.38;;;19.00;99.90;;;;;;5016066;28;20237;-82
2023/10/09 14:02:09;;;;;;;19.15;11.45;;;18.90;99.90;;;;;;5016058;28;20214;-82
2023/10/09 14:04:35;;;;;;;21.42;12.30;;;18.90;99.90;;;;;;5015776;28;20175;-82
2023/10/09 14:07:01;;;;;;;16.92;11.07;;;18.90;99.90;;;;;;5017276;28;20172;-82
2023/10/09 14:09:30;;;;;;;22.85;12.52;;;18.90;99.90;;;;;;5015673;28;20247;-82
2023/10/09 14:12:07;;;;;;;19.45;11.65;;;18.90;99.90;;;;;;5015695;28;20283;-82
2023/10/09 14:14:38;;;;;;;19.15;12.43;;;18.90;99.90;;;;;;5016241;28;20211;-82
2023/10/09 14:17:13;;;;;;;21.63;11.80;;;18.80;99.90;;;;;;5016656;28;20270;-82
2023/10/09 14:19:49;;;;;;;21.52;12.63;;;18.80;99.90;;;;;;5017389;28;20183;-82
2023/10/09 14:22:16;;;;;;;21.92;11.55;;;18.80;99.90;;;;;;5015953;28;20702;-82
2023/10/09 14:24:46;;;;;;;21.42;12.45;;;18.80;99.90;;;;;;5015513;28;20279;-82
2023/10/09 14:27:18;;;;;;;21.63;11.32;;;18.80;99.90;;;;;;5016725;28;20168;-82
2023/10/09 14:29:48;;;;;;;19.65;10.27;;;18.80;99.90;;;;;;5015698;28;20172;-82
2023/10/09 14:32:14;;;;;;;18.33;11.02;;;18.80;99.90;;;;;;5015948;28;20195;-82
2023/10/09 14:34:50;;;;;;;23.27;12.57;;;18.80;99.90;;;;;;5015288;28;20246;-82
2023/10/09 14:37:18;;;;;;;19.67;10.30;;;18.90;99.90;;;;;;5015451;28;20179;-82
2023/10/09 14:39:51;;;;;;;18.50;10.25;;;18.80;99.90;;;;;;5015658;28;20180;-82
2023/10/09 14:42:17;;;;;;;17.23;10.43;;;18.80;99.90;;;;;;5017073;28;20204;-82
2023/10/09 14:44:45;;;;;;;21.00;11.48;;;18.80;99.90;;;;;;5015701;28;20183;-82
2023/10/09 14:47:13;;;;;;;17.75;10.95;;;18.80;99.90;;;;;;5015819;28;20556;-82
2023/10/09 14:49:48;;;;;;;17.90;11.32;;;18.90;99.90;;;;;;5015986;28;20180;-82
2023/10/09 14:52:20;;;;;;;21.30;12.15;;;18.90;99.90;;;;;;5016327;28;20199;-82
2023/10/09 14:54:46;;;;;;;20.83;11.30;;;18.80;99.90;;;;;;5017328;28;20187;-82
2023/10/09 14:57:13;;;;;;;22.13;11.50;;;18.80;99.90;;;;;;5018509;28;20243;-82
2023/10/09 14:59:39;;;;;;;17.85;10.40;;;18.80;99.90;;;;;;5017098;28;20179;-82
2023/10/09 15:02:07;;;;;;;17.67;11.18;;;18.70;99.90;;;;;;5016472;28;20211;-82
2023/10/09 15:04:37;;;;;;;19.15;10.90;;;18.70;99.90;;;;;;5016325;28;20262;-82
2023/10/09 15:07:06;;;;;;;22.52;11.45;;;18.70;99.90;;;;;;5015707;28;20732;-82
2023/10/09 15:09:39;;;;;;;20.70;10.88;;;18.70;99.90;;;;;;5016218;28;20179;-82
2023/10/09 15:12:06;;;;;;;20.63;11.10;;;18.70;99.90;;;;;;5016271;28;20271;-82
2023/10/09 15:14:32;;;;;;;19.38;11.15;;;18.70;99.90;;;;;;5016277;28;20610;-82
2023/10/09 15:16:58;;;;;;;20.30;10.80;;;18.60;99.90;;;;;;5015063;28;20233;-82
2023/10/09 15:19:29;;;;;;;21.58;12.48;;;18.70;99.90;;;;;;5014591;28;20183;-82
2023/10/09 15:22:08;;;;;;;20.80;12.57;;;18.60;99.90;;;;;;5014384;28;20208;-83
2023/10/09 15:25:09;;;;;;;22.05;11.68;;;18.60;99.90;;;;;;5016703;28;20183;-84
2023/10/09 15:27:38;;;;;;;17.83;10.77;;;18.60;99.90;;;;;;5014546;28;20171;-84
2023/10/09 15:30:07;;;;;;;20.83;11.15;;;18.60;99.90;;;;;;5014306;28;20334;-84
2023/10/09 15:33:22;;;;;;;17.95;11.05;;;18.60;99.90;;;;;;4998054;28;20619;-84
2023/10/09 15:35:51;;;;;;;22.08;11.02;;;18.60;99.90;;;;;;5013965;28;20191;-83
2023/10/09 15:38:21;;;;;;;20.38;12.20;;;18.60;99.90;;;;;;5014376;28;20258;-83
2023/10/09 15:40:47;;;;;;;27.45;13.15;;;18.60;99.90;;;;;;5016172;28;20203;-82
2023/10/09 15:43:14;;;;;;;25.83;15.43;;;18.60;99.90;;;;;;5015663;28;20227;-83
2023/10/09 15:46:10;;;;;;;26.88;16.27;;;18.60;99.90;;;;;;5015390;28;20259;-83
2023/10/09 15:48:37;;;;;;;24.88;13.65;;;18.60;99.90;;;;;;5017098;28;20172;-82
2023/10/09 15:51:03;;;;;;;21.73;13.07;;;18.50;99.90;;;;;;5017217;28;20176;-83
2023/10/09 15:53:28;;;;;;;24.15;13.07;;;18.60;99.90;;;;;;5016367;28;20696;-82
2023/10/09 15:55:57;;;;;;;24.50;13.05;;;18.60;99.90;;;;;;5014874;28;20184;-82